Vandalia, Montana
Current Conditions -  °F | °C
As of 2:53 AM on Sunday 23 Nov 2014 (Local Time) from KGGW Reporting Station
Overcast Overcast  
Wind Chill: 17°   Ceiling: 2500
Heat Index: 31°   Visibility: 10mi
Dew Point: 22°   Wind: 25mph
Humidity: 69%   Direction: 310°NW
Pressure: 29.56"   Gusts: 35mph
Location:  48.35°N, 106.92°W
Report Text: KGGW 230953Z AUTO 31022G30KT 10SM OVC025 M01/M06 A2956 RMK AO2 PK WND 31036/0901 SLP026 T10061056
Loading
Personal Weather Stations






























Interactive Weather Map New forecast layout! Learn more

10-Day Weather Forecast

Advertisements
Track Severe Weather on mobile